Time;durP1;ratioP1;P1;durP2;ratioP2;P2;SDS_P1;SDS_P2;PMS_P1;PMS_P2;Temp;Humidity;BMP_temperature;BMP_pressure;BME280_temperature;BME280_humidity;BME280_pressure;Samples;Min_cycle;Max_cycle;Signal;HPM_P1;HPM_P2
2021/04/27 00:00:37;;;;;;;2.85;1.02;;;13.60;57.30;;;;;;4896777;29;20025;-82
2021/04/27 00:03:05;;;;;;;3.10;1.35;;;13.50;57.50;;;;;;4897109;29;20103;-73
2021/04/27 00:05:31;;;;;;;1.52;1.10;;;13.40;57.90;;;;;;4892699;29;20028;-74
2021/04/27 00:07:57;;;;;;;2.13;0.93;;;13.30;58.60;;;;;;4878431;29;20407;-73
2021/04/27 00:10:23;;;;;;;1.48;1.05;;;13.20;58.60;;;;;;4883423;29;20476;-73
2021/04/27 00:12:49;;;;;;;0.88;0.77;;;13.10;59.20;;;;;;4896740;29;20029;-73
2021/04/27 00:15:24;;;;;;;2.47;0.98;;;13.10;59.40;;;;;;4896693;29;20025;-82
2021/04/27 00:17:51;;;;;;;2.28;0.80;;;13.00;59.70;;;;;;4896709;29;20025;-74
2021/04/27 00:20:17;;;;;;;1.52;0.82;;;12.90;59.60;;;;;;4896208;29;20519;-73
2021/04/27 00:22:43;;;;;;;4.13;0.90;;;12.90;59.90;;;;;;4878424;29;20134;-73
2021/04/27 00:25:10;;;;;;;3.60;1.00;;;12.80;60.00;;;;;;4876985;29;20052;-74
2021/04/27 00:27:36;;;;;;;1.83;0.90;;;12.70;59.90;;;;;;4892851;29;20025;-74
2021/04/27 00:30:04;;;;;;;1.98;0.60;;;12.70;60.40;;;;;;4896564;29;21084;-82
2021/04/27 00:32:30;;;;;;;3.60;0.95;;;12.70;60.40;;;;;;4879991;29;20096;-74
2021/04/27 00:34:55;;;;;;;4.95;1.27;;;12.60;60.50;;;;;;4879857;29;20519;-74
2021/04/27 00:37:21;;;;;;;0.85;0.85;;;12.50;60.90;;;;;;4896748;29;20029;-77
2021/04/27 00:39:47;;;;;;;4.75;1.40;;;12.50;61.20;;;;;;4878784;29;20128;-74
2021/04/27 00:42:12;;;;;;;3.88;1.33;;;12.40;61.60;;;;;;4889550;29;20064;-73
2021/04/27 00:44:38;;;;;;;2.63;1.45;;;12.30;63.00;;;;;;4883992;29;20453;-74
2021/04/27 00:47:04;;;;;;;3.63;1.40;;;12.30;64.20;;;;;;4896655;29;20039;-82
2021/04/27 00:49:30;;;;;;;4.88;1.75;;;12.20;65.60;;;;;;4877752;29;20056;-82
2021/04/27 00:51:56;;;;;;;2.97;1.58;;;12.10;65.80;;;;;;4878247;29;20029;-73
2021/04/27 00:54:22;;;;;;;4.82;1.73;;;12.00;65.50;;;;;;4877367;29;20045;-75
2021/04/27 00:56:48;;;;;;;2.63;1.58;;;12.00;66.20;;;;;;4878597;29;20109;-74
2021/04/27 00:59:13;;;;;;;2.38;0.98;;;11.90;66.20;;;;;;4896052;29;20037;-74
2021/04/27 01:01:39;;;;;;;1.88;1.38;;;11.80;66.30;;;;;;4879632;29;20060;-82
2021/04/27 01:04:05;;;;;;;2.00;1.40;;;11.70;66.50;;;;;;4896328;29;20060;-74
2021/04/27 01:06:31;;;;;;;4.20;1.75;;;11.70;66.90;;;;;;4895364;29;20065;-82
2021/04/27 01:09:23;;;;;;;2.97;1.15;;;11.60;67.30;;;;;;4896198;29;20036;-82
2021/04/27 01:12:09;;;;;;;1.02;0.93;;;11.50;67.60;;;;;;4879089;29;20041;-74
2021/04/27 01:14:48;;;;;;;1.88;1.25;;;11.40;67.70;;;;;;4886767;29;20079;-82
2021/04/27 01:17:17;;;;;;;0.75;0.75;;;11.30;67.70;;;;;;4895079;29;20500;-74
2021/04/27 01:19:50;;;;;;;1.38;0.93;;;11.30;68.00;;;;;;4896067;29;20547;-73
2021/04/27 01:22:19;;;;;;;;;;;11.10;68.40;;;;;;4881054;29;20017;-74
2021/04/27 01:24:54;;;;;;;1.90;1.23;;;11.10;68.30;;;;;;4877216;29;20295;-73
2021/04/27 01:27:21;;;;;;;2.72;1.10;;;11.00;69.50;;;;;;4881731;29;20848;-73
2021/04/27 01:29:49;;;;;;;1.20;0.90;;;10.90;69.60;;;;;;4896385;29;20028;-81
2021/04/27 01:32:15;;;;;;;2.80;0.90;;;10.80;70.00;;;;;;4898666;29;20056;-83
2021/04/27 01:34:45;;;;;;;1.13;1.05;;;10.70;69.90;;;;;;4899618;29;20048;-74
2021/04/27 01:37:13;;;;;;;4.40;1.30;;;10.60;70.20;;;;;;4899375;29;20028;-73
2021/04/27 01:39:40;;;;;;;1.90;1.40;;;10.60;70.10;;;;;;4898918;29;20441;-74
2021/04/27 01:42:07;;;;;;;1.60;0.80;;;10.50;69.70;;;;;;4885370;29;20048;-82
2021/04/27 01:44:35;;;;;;;1.50;1.10;;;10.50;69.90;;;;;;4896463;29;20045;-82
2021/04/27 01:47:03;;;;;;;3.90;1.48;;;10.40;69.70;;;;;;4882121;29;20111;-82
2021/04/27 01:49:31;;;;;;;1.67;0.98;;;10.40;69.80;;;;;;4883835;29;20398;-73
2021/04/27 01:51:57;;;;;;;2.08;1.25;;;10.30;69.90;;;;;;4880272;29;20130;-73
2021/04/27 01:54:25;;;;;;;1.05;0.75;;;10.30;70.10;;;;;;4880294;29;20040;-79
2021/04/27 01:56:52;;;;;;;1.15;0.90;;;10.30;70.40;;;;;;4862162;29;20040;-82
2021/04/27 01:59:17;;;;;;;5.95;1.20;;;10.30;69.50;;;;;;4896271;29;20040;-82
2021/04/27 02:01:43;;;;;;;6.47;1.20;;;10.30;68.80;;;;;;4899113;29;20021;-82
2021/04/27 02:04:09;;;;;;;1.52;0.80;;;10.30;68.90;;;;;;4890885;29;20127;-82
2021/04/27 02:06:35;;;;;;;1.98;0.82;;;10.30;68.10;;;;;;4863625;29;20117;-82
2021/04/27 02:09:06;;;;;;;3.25;1.13;;;10.40;67.90;;;;;;4863173;29;20036;-73
2021/04/27 02:11:44;;;;;;;4.35;1.38;;;10.40;68.10;;;;;;4894726;29;20039;-73
2021/04/27 02:14:12;;;;;;;2.15;1.05;;;10.40;68.60;;;;;;4897554;29;20031;-73
2021/04/27 02:17:15;;;;;;;2.72;1.02;;;10.40;67.90;;;;;;4898814;29;20068;-73
2021/04/27 02:19:41;;;;;;;5.65;1.00;;;10.30;68.00;;;;;;4895176;29;20101;-82
2021/04/27 02:22:09;;;;;;;2.78;1.10;;;10.30;68.30;;;;;;4874022;29;20119;-82
2021/04/27 02:24:37;;;;;;;1.85;1.00;;;10.20;67.90;;;;;;4898233;29;20024;-73
2021/04/27 02:27:05;;;;;;;4.75;1.52;;;10.20;68.10;;;;;;4895040;29;20388;-73
2021/04/27 02:29:33;;;;;;;3.22;1.00;;;10.10;68.40;;;;;;4881769;29;20033;-73
2021/04/27 02:32:01;;;;;;;3.65;1.17;;;10.20;68.30;;;;;;4881533;29;20076;-73
2021/04/27 02:34:27;;;;;;;2.85;1.63;;;10.20;68.30;;;;;;4879945;29;20028;-74
2021/04/27 02:36:54;;;;;;;2.75;0.75;;;10.20;68.30;;;;;;4879706;29;20400;-73
2021/04/27 02:39:21;;;;;;;1.65;0.98;;;10.20;67.90;;;;;;4879199;29;20036;-82
2021/04/27 02:41:47;;;;;;;6.85;1.27;;;10.10;67.80;;;;;;4889499;29;20535;-82
2021/04/27 02:44:14;;;;;;;0.93;0.70;;;10.10;67.60;;;;;;4895630;29;20028;-73
2021/04/27 02:46:45;;;;;;;1.85;0.85;;;10.20;67.70;;;;;;4877581;29;20056;-73
2021/04/27 02:49:11;;;;;;;3.42;1.10;;;10.10;67.80;;;;;;4897069;29;20024;-74
2021/04/27 02:51:38;;;;;;;1.80;1.00;;;10.10;67.80;;;;;;4897999;29;20036;-82
2021/04/27 02:54:04;;;;;;;2.25;0.88;;;10.10;67.90;;;;;;4897868;29;20035;-82
2021/04/27 02:56:31;;;;;;;1.58;0.80;;;10.00;68.30;;;;;;4895268;29;20039;-74
2021/04/27 02:58:57;;;;;;;2.60;1.08;;;10.00;68.70;;;;;;4891723;29;20036;-81
2021/04/27 03:01:22;;;;;;;1.73;0.77;;;10.00;69.00;;;;;;4897217;29;20047;-82
2021/04/27 03:03:49;;;;;;;2.75;0.85;;;10.00;69.00;;;;;;4892138;29;20073;-74
2021/04/27 03:06:15;;;;;;;6.35;1.10;;;10.00;69.20;;;;;;4879351;29;20432;-82
2021/04/27 03:08:41;;;;;;;1.58;1.10;;;10.00;69.60;;;;;;4862391;29;20084;-73
2021/04/27 03:11:06;;;;;;;4.57;1.17;;;10.00;69.50;;;;;;4890460;29;20058;-74
2021/04/27 03:13:32;;;;;;;2.72;1.10;;;10.00;69.60;;;;;;4880081;29;20042;-74
2021/04/27 03:15:57;;;;;;;1.17;0.93;;;9.90;69.50;;;;;;4897746;29;20563;-82
2021/04/27 03:18:24;;;;;;;1.55;0.98;;;9.90;69.80;;;;;;4897526;29;20060;-74
2021/04/27 03:20:49;;;;;;;2.47;1.20;;;9.90;70.10;;;;;;4897633;29;20449;-73
2021/04/27 03:23:15;;;;;;;1.67;1.05;;;9.80;70.30;;;;;;4897298;29;20020;-74
2021/04/27 03:25:41;;;;;;;3.88;0.95;;;9.70;70.70;;;;;;4893458;29;20029;-82
2021/04/27 03:28:08;;;;;;;5.53;1.15;;;9.70;70.40;;;;;;4890134;29;20392;-82
2021/04/27 03:30:35;;;;;;;2.15;1.20;;;9.70;70.30;;;;;;4897653;29;20025;-82
2021/04/27 03:33:01;;;;;;;2.72;1.13;;;9.60;70.70;;;;;;4897237;29;20161;-82
2021/04/27 03:35:27;;;;;;;1.95;1.15;;;9.50;70.70;;;;;;4897590;29;20100;-74
2021/04/27 03:37:53;;;;;;;1.48;0.88;;;9.50;70.70;;;;;;4897379;29;20496;-82
2021/04/27 03:40:19;;;;;;;1.67;1.05;;;9.50;70.80;;;;;;4897048;29;20024;-82
2021/04/27 03:42:45;;;;;;;1.38;1.15;;;9.40;71.10;;;;;;4879496;29;20509;-73
2021/04/27 03:45:15;;;;;;;1.77;1.27;;;9.40;71.20;;;;;;4894208;29;20077;-73
2021/04/27 03:47:41;;;;;;;4.10;1.17;;;9.30;71.10;;;;;;4878567;29;20025;-74
2021/04/27 03:50:10;;;;;;;2.30;1.40;;;9.30;71.40;;;;;;4864655;29;20446;-74
2021/04/27 03:52:36;;;;;;;2.95;1.25;;;9.20;71.20;;;;;;4878359;29;20043;-82
2021/04/27 03:55:01;;;;;;;9.65;1.52;;;9.20;71.30;;;;;;4877804;29;20104;-73
2021/04/27 03:57:27;;;;;;;1.23;1.00;;;9.10;71.50;;;;;;4876785;29;20040;-82
2021/04/27 03:59:53;;;;;;;3.65;1.13;;;9.10;71.70;;;;;;4877299;29;20056;-73
2021/04/27 04:02:19;;;;;;;1.75;1.23;;;9.10;71.50;;;;;;4878130;29;20576;-73
2021/04/27 04:04:44;;;;;;;3.88;1.63;;;9.10;71.30;;;;;;4881940;29;20383;-73
2021/04/27 04:07:10;;;;;;;4.22;1.38;;;9.10;72.00;;;;;;4878366;29;20473;-73
2021/04/27 04:09:36;;;;;;;3.38;1.00;;;9.10;71.60;;;;;;4878183;29;20036;-74
2021/04/27 04:12:01;;;;;;;1.13;1.02;;;9.10;71.80;;;;;;4879714;29;20037;-82
2021/04/27 04:14:27;;;;;;;1.98;1.15;;;9.00;71.70;;;;;;4896922;29;20029;-81
2021/04/27 04:16:53;;;;;;;1.77;1.00;;;9.00;71.80;;;;;;4895104;29;20488;-82
2021/04/27 04:19:18;;;;;;;4.72;1.98;;;9.10;72.00;;;;;;4879916;29;20063;-82
2021/04/27 04:21:44;;;;;;;1.38;1.25;;;9.10;71.70;;;;;;4888046;29;20111;-82
2021/04/27 04:24:12;;;;;;;2.55;1.20;;;9.10;71.20;;;;;;4895700;29;20029;-82
2021/04/27 04:26:38;;;;;;;1.92;1.30;;;9.20;70.60;;;;;;4893135;29;20048;-74
2021/04/27 04:29:04;;;;;;;3.60;1.08;;;9.30;70.50;;;;;;4896809;29;20028;-73
2021/04/27 04:31:31;;;;;;;3.05;1.33;;;9.40;70.10;;;;;;4896821;29;20088;-74
2021/04/27 04:33:56;;;;;;;1.30;1.10;;;9.40;69.70;;;;;;4896683;29;20104;-83
2021/04/27 04:36:22;;;;;;;7.88;1.63;;;9.50;69.50;;;;;;4896563;29;20140;-82
2021/04/27 04:38:48;;;;;;;5.93;1.30;;;9.50;69.90;;;;;;4896579;29;20032;-82
2021/04/27 04:41:13;;;;;;;3.80;1.60;;;9.50;69.90;;;;;;4889591;29;20041;-82
2021/04/27 04:43:40;;;;;;;2.58;1.65;;;9.50;69.40;;;;;;4878222;29;20160;-73
2021/04/27 04:46:05;;;;;;;2.13;1.30;;;9.60;69.00;;;;;;4896465;29;20497;-82
2021/04/27 04:48:31;;;;;;;8.07;1.73;;;9.60;68.70;;;;;;4896672;29;20029;-82
2021/04/27 04:50:57;;;;;;;1.88;1.30;;;9.70;68.10;;;;;;4891891;29;20032;-82
2021/04/27 04:53:22;;;;;;;2.42;1.70;;;9.70;68.00;;;;;;4886714;29;20036;-74
2021/04/27 04:55:48;;;;;;;6.13;1.70;;;9.70;68.20;;;;;;4877444;29;20488;-74
2021/04/27 04:58:13;;;;;;;7.28;1.75;;;9.70;67.50;;;;;;4884841;29;20033;-82
2021/04/27 05:00:39;;;;;;;2.42;1.67;;;9.60;68.00;;;;;;4895347;29;20496;-82
2021/04/27 05:03:05;;;;;;;4.45;1.65;;;9.60;68.20;;;;;;4896213;29;20103;-80
2021/04/27 05:05:31;;;;;;;10.45;1.92;;;9.70;68.00;;;;;;4896532;29;20028;-73
2021/04/27 05:08:09;;;;;;;7.32;2.10;;;9.70;68.00;;;;;;4900231;29;20043;-73
2021/04/27 05:10:35;;;;;;;10.60;1.92;;;9.70;68.20;;;;;;4885631;29;20425;-82
2021/04/27 05:13:00;;;;;;;4.35;1.67;;;9.70;67.30;;;;;;4901338;29;20059;-82
2021/04/27 05:15:26;;;;;;;2.90;1.92;;;9.70;67.20;;;;;;4899609;29;20056;-82
2021/04/27 05:17:52;;;;;;;3.67;1.35;;;9.70;67.50;;;;;;4900968;29;20044;-73
2021/04/27 05:20:18;;;;;;;3.35;1.77;;;9.70;67.60;;;;;;4899505;29;20032;-73
2021/04/27 05:22:45;;;;;;;1.75;1.25;;;9.70;67.60;;;;;;4899865;29;20445;-73
2021/04/27 05:25:12;;;;;;;17.08;2.42;;;9.70;67.90;;;;;;4899410;29;20515;-79
2021/04/27 05:27:38;;;;;;;5.75;1.70;;;9.70;68.00;;;;;;4890409;29;20099;-81
2021/04/27 05:30:05;;;;;;;6.97;1.88;;;9.70;68.20;;;;;;4900466;29;20071;-81
2021/04/27 05:32:30;;;;;;;7.50;2.08;;;9.70;67.90;;;;;;4883587;29;20029;-73
2021/04/27 05:34:56;;;;;;;4.75;2.45;;;9.70;68.30;;;;;;4898377;29;20044;-73
2021/04/27 05:37:23;;;;;;;4.40;2.28;;;9.70;68.60;;;;;;4896192;29;20033;-73
2021/04/27 05:39:49;;;;;;;3.60;2.20;;;9.70;68.40;;;;;;4899167;29;20028;-73
2021/04/27 05:42:15;;;;;;;3.80;1.70;;;9.80;68.50;;;;;;4873725;29;20074;-73
2021/04/27 05:44:40;;;;;;;5.07;1.83;;;9.80;68.80;;;;;;4854129;29;20116;-73
2021/04/27 05:47:06;;;;;;;5.63;2.05;;;9.70;68.70;;;;;;4865125;29;20117;-73
2021/04/27 05:49:32;;;;;;;5.65;1.90;;;9.80;68.60;;;;;;4873174;29;20108;-82
2021/04/27 05:51:57;;;;;;;3.17;2.00;;;9.90;68.90;;;;;;4880332;29;20032;-74
2021/04/27 05:54:23;;;;;;;3.30;1.75;;;9.80;69.00;;;;;;4879500;29;20383;-81
2021/04/27 05:56:49;;;;;;;10.27;2.05;;;9.80;68.80;;;;;;4848902;29;20131;-74
2021/04/27 05:59:14;;;;;;;4.28;2.20;;;9.80;68.60;;;;;;4861016;29;20173;-73
2021/04/27 06:01:40;;;;;;;2.50;1.90;;;9.80;69.10;;;;;;4879450;29;20049;-79
2021/04/27 06:04:06;;;;;;;4.70;2.33;;;9.90;69.30;;;;;;4876979;29;20037;-81
2021/04/27 06:06:35;;;;;;;4.47;1.63;;;9.90;68.80;;;;;;4861961;29;20021;-74
2021/04/27 06:09:04;;;;;;;6.30;2.38;;;9.90;68.50;;;;;;4872685;29;20028;-81
2021/04/27 06:11:30;;;;;;;5.35;2.10;;;9.90;68.40;;;;;;4872795;29;20039;-74
2021/04/27 06:13:56;;;;;;;5.63;2.50;;;9.90;68.30;;;;;;4879576;29;20037;-83
2021/04/27 06:16:23;;;;;;;1.98;1.73;;;9.90;68.40;;;;;;4876111;29;20037;-74
2021/04/27 06:18:49;;;;;;;2.72;2.10;;;9.90;69.00;;;;;;4878633;29;20036;-81
2021/04/27 06:21:15;;;;;;;5.50;2.55;;;9.90;69.70;;;;;;4865924;29;20032;-82
2021/04/27 06:23:40;;;;;;;8.55;2.63;;;9.90;70.10;;;;;;4868745;29;20041;-74
2021/04/27 06:26:06;;;;;;;5.38;2.00;;;9.90;70.10;;;;;;4864756;29;20042;-74
2021/04/27 06:28:32;;;;;;;8.57;2.45;;;9.90;69.70;;;;;;4873590;29;20093;-73
2021/04/27 06:30:57;;;;;;;4.53;2.10;;;9.90;70.40;;;;;;4880043;29;20537;-82
2021/04/27 06:33:23;;;;;;;5.47;2.60;;;9.90;69.80;;;;;;4877206;29;20627;-81
2021/04/27 06:35:49;;;;;;;3.53;2.10;;;10.00;69.80;;;;;;4847342;29;20116;-74
2021/04/27 06:38:18;;;;;;;5.70;2.88;;;10.00;69.10;;;;;;4877441;29;20116;-74
2021/04/27 06:40:53;;;;;;;4.88;2.28;;;10.10;68.20;;;;;;4846201;29;20041;-74
2021/04/27 06:43:20;;;;;;;5.82;2.78;;;10.20;68.60;;;;;;4887668;29;20190;-82
2021/04/27 06:45:46;;;;;;;7.63;3.00;;;10.30;68.00;;;;;;4893800;29;20033;-81
2021/04/27 06:48:12;;;;;;;5.68;2.45;;;10.50;67.20;;;;;;4884119;29;20036;-82
2021/04/27 06:50:39;;;;;;;3.53;2.00;;;10.70;65.70;;;;;;4888216;29;20035;-74
2021/04/27 06:53:04;;;;;;;6.97;2.67;;;10.90;65.30;;;;;;4880727;29;20100;-82
2021/04/27 06:55:31;;;;;;;5.97;2.50;;;11.00;64.80;;;;;;4877319;29;20113;-75
2021/04/27 06:58:23;;;;;;;3.85;2.25;;;11.10;63.60;;;;;;4889697;29;20063;-80
2021/04/27 07:00:48;;;;;;;4.28;2.42;;;11.10;62.50;;;;;;4891015;29;20463;-82
2021/04/27 07:03:14;;;;;;;5.35;2.47;;;11.30;62.30;;;;;;4895318;29;20112;-74
2021/04/27 07:05:42;;;;;;;6.00;2.20;;;11.40;62.40;;;;;;4877408;29;20025;-81
2021/04/27 07:08:07;;;;;;;4.05;2.28;;;11.50;61.50;;;;;;4896651;29;20079;-74
2021/04/27 07:10:33;;;;;;;3.88;2.53;;;11.60;60.80;;;;;;4893198;29;20485;-83
2021/04/27 07:12:59;;;;;;;2.10;1.75;;;11.80;60.50;;;;;;4896875;29;20035;-83
2021/04/27 07:15:25;;;;;;;5.22;2.45;;;11.90;60.00;;;;;;4879111;29;20055;-74
2021/04/27 07:17:50;;;;;;;3.72;2.45;;;12.00;59.30;;;;;;4893700;29;20058;-74
2021/04/27 07:20:16;;;;;;;5.05;2.70;;;12.10;58.50;;;;;;4877907;29;20036;-82
2021/04/27 07:22:43;;;;;;;5.32;2.40;;;12.20;58.20;;;;;;4893536;29;20172;-82
2021/04/27 07:25:10;;;;;;;3.90;2.13;;;12.30;58.90;;;;;;4893406;29;20104;-75
2021/04/27 07:27:36;;;;;;;17.92;3.25;;;12.40;58.00;;;;;;4893469;29;20448;-75
2021/04/27 07:30:04;;;;;;;8.40;2.45;;;12.60;58.80;;;;;;4895530;29;20036;-75
2021/04/27 07:32:29;;;;;;;8.65;2.13;;;12.80;58.80;;;;;;4895498;29;20514;-81
2021/04/27 07:34:55;;;;;;;13.85;2.55;;;13.00;57.80;;;;;;4895605;29;20470;-82
2021/04/27 07:37:21;;;;;;;11.13;2.53;;;13.20;57.70;;;;;;4894701;29;20409;-83
2021/04/27 07:39:47;;;;;;;4.43;2.65;;;13.30;55.60;;;;;;4890258;29;20025;-75
2021/04/27 07:42:13;;;;;;;3.50;2.28;;;13.50;55.80;;;;;;4891449;29;20052;-75
2021/04/27 07:44:39;;;;;;;5.97;2.30;;;13.60;56.20;;;;;;4875825;29;20524;-82
2021/04/27 07:47:05;;;;;;;4.32;2.30;;;13.80;55.70;;;;;;4887632;29;20190;-82
2021/04/27 07:49:30;;;;;;;2.92;2.10;;;14.00;55.00;;;;;;4893631;29;20036;-81
2021/04/27 07:51:56;;;;;;;5.43;2.10;;;14.30;54.20;;;;;;4895522;29;20040;-83
2021/04/27 07:54:23;;;;;;;5.03;2.67;;;14.90;53.00;;;;;;4890727;29;20051;-75
2021/04/27 07:56:49;;;;;;;3.75;2.22;;;17.40;47.60;;;;;;4891112;29;20041;-76
2021/04/27 07:59:15;;;;;;;3.58;2.60;;;20.40;40.40;;;;;;4876506;29;20045;-75
2021/04/27 08:01:41;;;;;;;5.78;3.15;;;21.80;36.50;;;;;;4877826;29;20032;-83
2021/04/27 08:04:07;;;;;;;9.57;2.67;;;22.90;34.50;;;;;;4889407;29;20041;-76
2021/04/27 08:06:33;;;;;;;6.85;3.10;;;23.50;32.80;;;;;;4889945;29;20481;-76
2021/04/27 08:09:00;;;;;;;11.63;3.38;;;23.90;32.40;;;;;;4893428;29;20036;-76
2021/04/27 08:11:25;;;;;;;7.50;2.90;;;24.20;30.50;;;;;;4881167;29;20036;-83
2021/04/27 08:13:51;;;;;;;2.97;2.63;;;24.70;30.30;;;;;;4875460;29;20036;-76
2021/04/27 08:16:17;;;;;;;5.05;3.08;;;25.30;30.10;;;;;;4883664;29;20025;-83
2021/04/27 08:18:43;;;;;;;6.35;2.85;;;25.20;30.30;;;;;;4877810;29;20099;-84
2021/04/27 08:21:11;;;;;;;6.03;3.40;;;26.10;29.50;;;;;;4884440;29;20107;-83
2021/04/27 08:23:38;;;;;;;5.35;3.13;;;25.80;29.50;;;;;;4893538;29;20400;-76
2021/04/27 08:26:06;;;;;;;4.45;2.95;;;26.20;29.00;;;;;;4882493;29;20448;-76
2021/04/27 08:28:32;;;;;;;5.47;3.30;;;26.60;28.40;;;;;;4893037;29;20032;-76
2021/04/27 08:30:58;;;;;;;11.82;3.08;;;26.10;28.80;;;;;;4896797;29;20024;-84
2021/04/27 08:33:24;;;;;;;3.85;2.92;;;26.50;29.10;;;;;;4896048;29;20492;-77
2021/04/27 08:35:51;;;;;;;4.30;3.30;;;27.10;28.40;;;;;;4890988;29;20040;-77
2021/04/27 08:38:17;;;;;;;4.80;3.70;;;27.20;28.50;;;;;;4896071;29;20042;-81
2021/04/27 08:40:43;;;;;;;8.00;4.22;;;27.30;28.00;;;;;;4881023;29;20121;-75
2021/04/27 08:43:09;;;;;;;8.80;3.55;;;27.70;27.60;;;;;;4887690;29;20052;-75
2021/04/27 08:45:35;;;;;;;4.05;3.53;;;27.50;27.50;;;;;;4890121;29;20017;-75
2021/04/27 08:48:01;;;;;;;6.50;4.03;;;28.00;28.50;;;;;;4896241;29;20060;-82
2021/04/27 08:50:26;;;;;;;3.67;3.38;;;28.30;27.30;;;;;;4887936;29;20025;-83
2021/04/27 08:52:52;;;;;;;10.30;3.95;;;28.60;27.00;;;;;;4881311;29;20506;-83
2021/04/27 08:55:18;;;;;;;12.32;4.28;;;28.20;27.00;;;;;;4891366;29;20065;-83
2021/04/27 08:57:44;;;;;;;4.97;3.58;;;28.30;27.20;;;;;;4875702;29;20079;-83
2021/04/27 09:00:13;;;;;;;4.13;3.13;;;28.40;27.20;;;;;;4899833;29;20064;-83
2021/04/27 09:02:39;;;;;;;3.92;3.50;;;28.40;27.30;;;;;;4898835;29;20056;-75
2021/04/27 09:05:18;;;;;;;13.98;4.00;;;28.80;27.10;;;;;;4891438;29;20048;-75
2021/04/27 09:07:43;;;;;;;6.40;3.70;;;29.20;27.30;;;;;;4898869;29;20108;-83
2021/04/27 09:10:33;;;;;;;3.83;3.53;;;29.40;26.10;;;;;;4897485;29;20478;-75
2021/04/27 09:13:17;;;;;;;3.63;3.33;;;29.10;26.00;;;;;;4897954;29;20480;-84
2021/04/27 09:15:51;;;;;;;5.45;3.53;;;28.60;26.70;;;;;;4899627;29;20037;-84
2021/04/27 09:18:32;;;;;;;3.55;3.25;;;28.60;26.80;;;;;;4882992;29;20049;-82
2021/04/27 09:21:04;;;;;;;7.22;4.13;;;28.40;27.00;;;;;;4889660;29;20060;-75
2021/04/27 09:23:32;;;;;;;4.75;3.63;;;28.90;26.40;;;;;;4898744;29;20104;-81
2021/04/27 09:26:09;;;;;;;5.50;3.38;;;28.90;26.20;;;;;;4898576;29;20087;-75
2021/04/27 09:28:40;;;;;;;5.25;3.55;;;28.80;26.30;;;;;;4896712;29;20032;-75
2021/04/27 09:31:28;;;;;;;3.50;3.30;;;28.70;26.50;;;;;;4899643;29;20088;-75
2021/04/27 09:34:14;;;;;;;9.30;3.70;;;28.80;27.20;;;;;;4899555;29;20032;-84
2021/04/27 09:36:40;;;;;;;3.95;3.45;;;28.80;27.00;;;;;;4881532;29;20037;-83
2021/04/27 09:39:05;;;;;;;9.35;3.88;;;29.00;26.40;;;;;;4898334;29;20059;-75
2021/04/27 09:41:31;;;;;;;7.55;4.32;;;28.80;26.60;;;;;;4898788;29;20357;-75
2021/04/27 09:43:57;;;;;;;4.22;3.83;;;28.90;27.60;;;;;;4893501;29;20041;-82
2021/04/27 09:46:23;;;;;;;7.65;3.70;;;29.20;26.80;;;;;;4898004;29;20044;-83
2021/04/27 09:48:54;;;;;;;4.55;3.63;;;29.60;26.00;;;;;;4896317;29;20103;-75
2021/04/27 09:51:22;;;;;;;4.35;3.47;;;29.20;25.60;;;;;;4897890;29;20028;-75
2021/04/27 09:53:55;;;;;;;4.25;3.90;;;28.60;26.00;;;;;;4896954;29;20484;-75
2021/04/27 09:56:42;;;;;;;4.53;4.07;;;29.20;26.40;;;;;;4898236;29;20088;-83
2021/04/27 09:59:13;;;;;;;5.80;3.83;;;29.00;26.30;;;;;;4894790;29;20050;-83
2021/04/27 10:01:40;;;;;;;5.72;4.50;;;28.90;27.20;;;;;;4881884;29;20021;-84
2021/04/27 10:04:06;;;;;;;13.23;4.50;;;28.60;26.20;;;;;;4888758;29;20036;-75
2021/04/27 10:06:34;;;;;;;6.85;3.78;;;28.80;26.60;;;;;;4890665;29;20047;-75
2021/04/27 10:09:00;;;;;;;5.03;3.63;;;28.90;26.50;;;;;;4897302;29;20037;-75
2021/04/27 10:11:27;;;;;;;13.43;4.18;;;29.10;26.20;;;;;;4898670;29;20039;-84
2021/04/27 10:13:55;;;;;;;7.47;4.20;;;29.10;26.60;;;;;;4883493;29;20518;-75
2021/04/27 10:16:22;;;;;;;6.28;3.92;;;28.90;26.80;;;;;;4897916;29;20084;-75
2021/04/27 10:18:48;;;;;;;7.85;4.43;;;28.70;26.50;;;;;;4879488;29;20444;-75
2021/04/27 10:21:14;;;;;;;5.40;4.40;;;28.90;26.80;;;;;;4887048;29;20028;-75
2021/04/27 10:23:41;;;;;;;8.60;4.00;;;28.60;26.80;;;;;;4896356;29;20028;-84
2021/04/27 10:26:10;;;;;;;5.55;3.67;;;28.90;26.10;;;;;;4891574;29;20017;-84
2021/04/27 10:29:01;;;;;;;5.15;4.03;;;29.00;26.70;;;;;;4893679;29;20496;-83
2021/04/27 10:31:28;;;;;;;8.43;3.47;;;28.70;26.90;;;;;;4893750;29;20040;-75
2021/04/27 10:34:01;;;;;;;9.75;4.35;;;28.80;26.50;;;;;;4876334;29;20064;-75
2021/04/27 10:36:27;;;;;;;4.57;4.13;;;28.50;26.20;;;;;;4894521;29;20033;-75
2021/04/27 10:38:58;;;;;;;3.67;3.33;;;28.90;26.30;;;;;;4896467;29;20044;-84
2021/04/27 10:41:50;;;;;;;6.15;3.78;;;29.60;26.90;;;;;;4888401;29;20037;-76
2021/04/27 10:44:17;;;;;;;7.72;4.75;;;29.60;26.90;;;;;;4889822;29;20029;-76
2021/04/27 10:46:52;;;;;;;4.53;4.10;;;29.50;26.50;;;;;;4877179;29;20192;-76
2021/04/27 10:49:20;;;;;;;7.72;3.78;;;29.20;26.20;;;;;;4882246;29;20039;-83
2021/04/27 10:51:47;;;;;;;4.25;3.50;;;29.30;27.30;;;;;;4896547;29;20484;-84
2021/04/27 10:54:16;;;;;;;11.57;4.30;;;28.80;26.20;;;;;;4895074;29;21467;-83
2021/04/27 10:56:54;;;;;;;6.32;3.88;;;29.10;26.80;;;;;;4873358;29;20793;-76
2021/04/27 10:59:27;;;;;;;8.52;3.88;;;28.90;26.30;;;;;;4877504;29;20449;-84
2021/04/27 11:02:13;;;;;;;10.98;3.70;;;28.70;27.00;;;;;;4887533;29;20032;-83
2021/04/27 11:04:43;;;;;;;9.40;3.92;;;28.80;27.20;;;;;;4888936;29;20060;-84
2021/04/27 11:07:23;;;;;;;5.10;4.00;;;28.90;26.80;;;;;;4877639;29;20029;-84
2021/04/27 11:10:02;;;;;;;8.60;4.30;;;28.80;26.80;;;;;;4881976;29;20037;-76
2021/04/27 11:12:53;;;;;;;5.70;4.25;;;28.80;26.40;;;;;;4887770;29;20029;-76
2021/04/27 11:15:18;;;;;;;3.65;3.35;;;28.60;27.20;;;;;;4876636;29;20041;-82
2021/04/27 11:18:17;;;;;;;7.38;3.42;;;28.70;27.10;;;;;;4888852;29;20572;-84
2021/04/27 11:21:11;;;;;;;5.22;3.65;;;28.80;27.50;;;;;;4877502;29;20128;-84
2021/04/27 11:23:46;;;;;;;7.82;3.80;;;28.30;27.00;;;;;;4871165;29;20028;-74
2021/04/27 11:26:31;;;;;;;5.60;3.45;;;28.20;27.20;;;;;;4885545;29;20112;-78
2021/04/27 11:29:08;;;;;;;14.98;3.38;;;28.40;27.00;;;;;;4891464;29;20103;-79
2021/04/27 11:32:13;;;;;;;7.32;4.10;;;28.10;28.70;;;;;;4892392;29;20035;-79
2021/04/27 11:34:54;;;;;;;4.68;3.35;;;27.10;28.20;;;;;;4868397;29;20077;-74
2021/04/27 11:37:34;;;;;;;10.38;3.38;;;27.00;28.80;;;;;;4885091;29;20033;-75
2021/04/27 11:40:24;;;;;;;5.60;3.70;;;27.10;29.00;;;;;;4890804;29;20029;-78
2021/04/27 11:42:55;;;;;;;3.90;3.50;;;27.80;28.80;;;;;;4888887;29;20051;-79
2021/04/27 11:45:22;;;;;;;11.32;3.10;;;28.30;28.50;;;;;;4871923;29;20493;-79
2021/04/27 11:47:49;;;;;;;2.70;2.50;;;28.60;28.10;;;;;;4894994;29;20472;-75
2021/04/27 11:50:20;;;;;;;6.57;3.63;;;28.60;28.20;;;;;;4886728;29;20033;-81
2021/04/27 11:53:00;;;;;;;7.43;3.00;;;28.30;28.50;;;;;;4882789;29;20400;-82
2021/04/27 11:55:34;;;;;;;4.93;3.50;;;27.60;29.10;;;;;;4887343;29;20135;-82
2021/04/27 11:58:19;;;;;;;8.20;3.00;;;26.70;28.50;;;;;;4893139;29;20407;-84
2021/04/27 12:00:56;;;;;;;4.65;3.28;;;26.40;29.10;;;;;;4881813;29;20029;-77
2021/04/27 12:03:55;;;;;;;5.00;3.10;;;26.00;29.90;;;;;;4880665;29;20037;-78
2021/04/27 12:06:21;;;;;;;4.85;3.28;;;25.90;29.70;;;;;;4866735;29;20519;-84
2021/04/27 12:08:53;;;;;;;10.43;3.38;;;25.60;30.00;;;;;;4886551;29;20037;-83
2021/04/27 12:11:29;;;;;;;3.38;2.80;;;25.70;30.00;;;;;;4864982;29;20037;-83
2021/04/27 12:13:54;;;;;;;9.75;3.42;;;25.80;30.00;;;;;;4862054;29;20044;-78
2021/04/27 12:16:34;;;;;;;7.68;3.30;;;26.10;30.40;;;;;;4878388;29;20162;-78
2021/04/27 12:19:13;;;;;;;7.05;3.17;;;26.00;29.70;;;;;;4883844;29;20477;-84
2021/04/27 12:21:48;;;;;;;6.85;2.88;;;26.10;29.30;;;;;;4887295;29;20024;-77
2021/04/27 12:24:35;;;;;;;4.95;2.75;;;26.80;29.10;;;;;;4890527;29;20124;-77
2021/04/27 12:27:14;;;;;;;4.45;3.10;;;27.00;28.50;;;;;;4870340;29;20040;-77
2021/04/27 12:29:50;;;;;;;5.22;2.88;;;26.60;29.00;;;;;;4886979;29;20446;-77
2021/04/27 12:32:18;;;;;;;10.68;3.30;;;26.40;29.30;;;;;;4883758;29;20060;-84
2021/04/27 12:35:00;;;;;;;5.53;3.95;;;26.40;30.10;;;;;;4893025;29;20052;-77
2021/04/27 12:37:29;;;;;;;9.77;3.67;;;26.20;29.30;;;;;;4885315;29;20040;-77
2021/04/27 12:39:59;;;;;;;5.15;3.28;;;25.90;30.30;;;;;;4888369;29;20110;-76
2021/04/27 12:42:31;;;;;;;5.80;3.45;;;26.00;29.90;;;;;;4871635;29;20500;-77
2021/04/27 12:45:03;;;;;;;3.90;3.00;;;26.10;31.70;;;;;;4867587;29;20096;-84
2021/04/27 12:47:33;;;;;;;4.70;2.97;;;26.20;30.00;;;;;;4890746;29;20496;-83
2021/04/27 12:50:06;;;;;;;4.28;3.10;;;26.10;30.50;;;;;;4891929;29;20044;-77
2021/04/27 12:52:34;;;;;;;6.30;2.75;;;25.80;29.80;;;;;;4893744;29;20028;-77
2021/04/27 12:55:04;;;;;;;4.60;2.78;;;25.50;31.10;;;;;;4876678;29;20040;-77
2021/04/27 12:57:31;;;;;;;3.58;2.50;;;25.50;32.00;;;;;;4888172;29;20133;-86